AirNav   Air Wisconsin Up To $57,000 Bonus
 
 1196 users online  

28FD Jackson County Hospital Heliport
Marianna, Florida, USA

GOING TO MARIANNA?


FAA INFORMATION EFFECTIVE 05 DECEMBER 2019

Location

FAA Identifier: 28FD
Lat/Long: 30-47-14.3500N 085-14-27.3000W
30-47.239167N 085-14.455000W
30.7873194,-85.2409167
(estimated)
Elevation: 145 ft. / 44 m (estimated)
Variation: 00W (1985)
Time zone: UTC -6 (UTC -5 during Daylight Saving Time)
Zip code: 32446

Heliport Operations

Heliport use: Private use, MEDICAL USE.
Activation date: 08/1991
Control tower: no
ARTCC: JACKSONVILLE CENTER
FSS: GAINESVILLE FLIGHT SERVICE STATION
Attendance: CONTINUOUS
Wind indicator: yes
Segmented circle: no
Lights: FOR PERIMETER LGTS CALL 850-526-2200.

Heliport Communications

WX ASOS at MAI (4 nm NE): 133.525 (850-482-6082)
WX AWOS-3PT at 1J0 (19 nm W): 119.825 (850-547-1431)
WX AWOS-AV at F95 (19 nm S): 119.350 (850-674-1347)

Nearby radio navigation aids

VOR radial/distance  VOR name  Freq  Var
MAIr271/6.0MARIANNA VORTAC114.0000E
RRSr160/31.4WIREGRASS VORTAC111.6002E
OZRr142/38.2CAIRNS VOR/DME111.2003W

 
NDB name  Hdg/Dist  Freq  Var  ID
SOYYA191/5.132902WSMY ... -- -.--
WILLIS257/38.535904WLYZ .-.. -.-- --..
LYNNE049/39.327804WPFN .--. ..-. -.

Heliport Services

Runway Information

Helipad H1

Dimensions: 50 x 50 ft. / 15 x 15 m
Surface: concrete
Runway edge lights: PERI
Latitude: 30-47.239167N
Longitude: 085-14.455000W
Elevation: 145.0 ft.
Traffic pattern: leftleft

Heliport Ownership and Management from official FAA records

Ownership: Publicly-owned
Owner: JACKSON HOSPITAL
4250 HOSPITAL DRIVE
MARIANNA, FL 32446
Phone 850-526-2200
Manager: KEVIN DANIEL
4250 HOSPITAL DR
MARIANNA, FL 32446
Phone 850-526-2200

Additional Remarks

A52-H1 40 FT TREES 400 FT FM PAD.
FOR CD CTC CAIRNS APCH AT 334-255-8402 OR 334-255-8460, WHEN APCH CLSD CTC JACKSONVILLE ARTCC AT 904-845-1592.

Instrument Procedures

There are no published instrument procedures at 28FD.

Some nearby airports with instrument procedures:

KMAI - Marianna Municipal Airport (4 nm NE)
1J0 - Tri-County Airport (19 nm W)
17J - Donalsonville Municipal Airport (23 nm NE)
KBGE - Decatur County Industrial Air Park (33 nm E)
KDHN - Dothan Regional Airport (34 nm N)
 
Loc | Ops | Rwys | IFR | FBO | Links
Com | Nav | Svcs | Stats | Notes
Area around 28FD (Jackson County Hospital Heliport)
 
Road maps at: MapQuest Bing Google
 
Aerial photo
No photo
 
Sectional chart

 
Airport distance calculator
Flying to Jackson County Hospital Heliport? Find the distance to fly.

From to 28FD

Sunrise and sunset
Times for 07-Dec-2019
 Local
(UTC-6)
 Zulu
(UTC)
Morning civil twilight06:0012:00
Sunrise06:2712:27
Sunset16:3822:38
Evening civil twilight17:0523:05

Current date and time
Zulu (UTC)  08-Dec-2019 02:33:34
Local (UTC-6)  07-Dec-2019 20:33:34
 
METAR
KMAI 
4nm NE 
080153Z AUTO 07006KT 10SM OVC031 16/12 A3019 RMK AO2 SLP222 T01610117
K1J0 
19nm W 
080158Z AUTO 00000KT 10SM BKN033 OVC070 16/13 A3021 RMK AO2 SLP214 T01610128
TAF
KDHN 
34nm N 
071738Z 0718/0818 06006KT P6SM FEW020 BKN040 TEMPO 0718/0722 BKN020 FM080600 09010KT P6SM OVC040 FM081600 12010KT P6SM OVC040
KECP 
39nm SW 
072215Z 0722/0818 03006KT P6SM BKN015 FM080600 07009KT P6SM VCSH BKN040 FM081500 11011KT P6SM BKN040
KOZR 
39nm NW 
080000Z 0800/0906 06006KT 9999 BKN025 QNH3014INS BECMG 0813/0814 08009KT 9999 BKN015 QNH3014INS BECMG 0819/0820 09006KT 9999 BKN030 QNH3013INS BECMG 0901/0902 12006KT 9999 BKN020 QNH3006INS TX18/0800Z TN11/0814Z LAST NO AMDS AFT 0800 NEXT NEXT 0908
NOTAMs
Click for the latest NOTAMs
NOTAMs are issued by the DoD/FAA and will open in a separate window not controlled by AirNav.

 

 
 

Would you like to see your business listed on this page?

 If your business provides an interesting product or service to pilots, flight crews, aircraft, or users of the Jackson County Hospital Heliport, you should consider listing it here.  To start the listing process, click on the button below
 
Add a business
 

Other Pages about Jackson County Hospital Heliport

Update a link
 
Copyright © AirNav, LLC. All rights reserved. Privacy Policy  Contact